createdAt,value
2017-08-27T00:01:11.510Z,96.50
2017-08-27T00:03:39.017Z,97.00
2017-08-27T00:06:06.541Z,97.40
2017-08-27T00:08:34.046Z,97.70
2017-08-27T00:11:01.586Z,97.90
2017-08-27T00:13:29.208Z,98.10
2017-08-27T00:15:56.730Z,98.20
2017-08-27T00:18:24.253Z,98.70
2017-08-27T00:20:51.774Z,98.90
2017-08-27T00:23:19.278Z,98.80
2017-08-27T00:25:46.806Z,99.10
2017-08-27T00:28:15.225Z,99.30
2017-08-27T00:30:42.734Z,99.20
2017-08-27T00:33:10.262Z,99.50
2017-08-27T00:35:37.858Z,99.90
2017-08-27T00:38:05.371Z,99.90
2017-08-27T00:40:32.910Z,99.90
2017-08-27T00:43:00.414Z,99.90
2017-08-27T00:45:27.918Z,99.90
2017-08-27T00:47:55.446Z,99.90
2017-08-27T00:50:22.974Z,99.90
2017-08-27T00:52:50.498Z,99.90
2017-08-27T00:55:18.001Z,99.90
2017-08-27T00:57:45.525Z,99.90
2017-08-27T01:00:13.034Z,99.90
2017-08-27T01:02:40.538Z,99.90
2017-08-27T01:05:08.066Z,99.90
2017-08-27T01:07:35.577Z,99.90
2017-08-27T01:10:03.502Z,99.90
2017-08-27T01:12:31.022Z,99.90
2017-08-27T01:14:58.522Z,99.90
2017-08-27T01:17:26.062Z,99.90
2017-08-27T01:19:53.562Z,99.90
2017-08-27T01:22:21.066Z,99.90
2017-08-27T01:24:48.598Z,99.90
2017-08-27T01:27:16.098Z,99.90
2017-08-27T01:29:43.610Z,99.90
2017-08-27T01:32:11.138Z,99.90
2017-08-27T01:34:38.645Z,99.90
2017-08-27T01:37:06.147Z,99.90
2017-08-27T01:39:33.686Z,99.90
2017-08-27T01:42:01.191Z,99.90
2017-08-27T01:44:28.694Z,99.90
2017-08-27T01:46:56.217Z,99.90
2017-08-27T01:49:23.721Z,99.90
2017-08-27T01:51:51.237Z,99.90
2017-08-27T01:54:18.761Z,99.90
2017-08-27T01:56:46.273Z,99.90
2017-08-27T01:59:13.779Z,99.90
2017-08-27T02:01:41.322Z,99.90
2017-08-27T02:04:08.825Z,99.90
2017-08-27T02:06:36.330Z,99.90
2017-08-27T02:09:03.870Z,99.90
2017-08-27T02:11:31.381Z,99.90
2017-08-27T02:13:58.893Z,99.90
2017-08-27T02:16:26.421Z,99.90
2017-08-27T02:18:55.407Z,99.90
2017-08-27T02:21:22.910Z,99.90
2017-08-27T02:23:50.433Z,99.90
2017-08-27T02:26:17.942Z,99.90
2017-08-27T02:28:46.154Z,99.90
2017-08-27T02:31:13.674Z,99.90
2017-08-27T02:33:41.173Z,99.90
2017-08-27T02:36:08.706Z,99.90
2017-08-27T02:38:36.213Z,99.90
2017-08-27T02:41:03.715Z,99.90
2017-08-27T02:43:31.261Z,99.90
2017-08-27T02:45:58.767Z,99.90
2017-08-27T02:48:26.275Z,99.90
2017-08-27T02:50:53.805Z,99.90
2017-08-27T02:53:21.306Z,99.90
2017-08-27T02:55:48.813Z,99.90
2017-08-27T02:58:16.354Z,99.90
2017-08-27T03:00:43.863Z,99.90
2017-08-27T03:03:11.376Z,99.90
2017-08-27T03:05:38.962Z,99.90
2017-08-27T03:08:06.466Z,99.90
2017-08-27T03:10:34.169Z,99.90
2017-08-27T03:13:01.711Z,99.90
2017-08-27T03:15:29.212Z,99.90
2017-08-27T03:17:56.737Z,99.90
2017-08-27T03:20:24.265Z,99.90
2017-08-27T03:22:51.802Z,99.90
2017-08-27T03:25:19.322Z,99.90
2017-08-27T03:27:46.850Z,99.90
2017-08-27T03:30:14.354Z,99.90
2017-08-27T03:32:41.857Z,99.90
2017-08-27T03:35:09.382Z,99.90
2017-08-27T03:37:36.882Z,99.90
2017-08-27T03:40:04.382Z,99.90
2017-08-27T03:42:32.287Z,99.90
2017-08-27T03:44:59.784Z,99.90
2017-08-27T03:47:27.282Z,99.90
2017-08-27T03:49:54.809Z,99.90
2017-08-27T03:52:22.309Z,99.90
2017-08-27T03:54:49.810Z,99.90
2017-08-27T03:57:17.333Z,99.90
2017-08-27T03:59:44.838Z,99.90
2017-08-27T04:02:12.341Z,99.90
2017-08-27T04:04:39.866Z,99.90
2017-08-27T04:07:07.369Z,99.90
2017-08-27T04:09:34.873Z,99.90
2017-08-27T04:12:02.818Z,99.90
2017-08-27T04:14:30.325Z,99.90
2017-08-27T04:16:57.826Z,99.90
2017-08-27T04:19:25.355Z,99.90
2017-08-27T04:21:52.855Z,99.90
2017-08-27T04:24:20.358Z,99.90
2017-08-27T04:26:47.886Z,99.90
2017-08-27T04:29:15.398Z,99.90
2017-08-27T04:31:42.902Z,99.90
2017-08-27T04:34:10.434Z,99.90
2017-08-27T04:36:37.946Z,99.90
2017-08-27T04:39:05.452Z,99.90
2017-08-27T04:41:32.990Z,99.90
2017-08-27T04:44:00.495Z,99.90
2017-08-27T04:46:28.001Z,99.90
2017-08-27T04:48:55.538Z,99.90
2017-08-27T04:51:23.042Z,99.90
2017-08-27T04:53:50.558Z,99.90
2017-08-27T04:56:18.081Z,99.90
2017-08-27T04:58:45.586Z,99.90
2017-08-27T05:01:13.094Z,99.90
2017-08-27T05:03:40.627Z,99.90
2017-08-27T05:06:08.133Z,99.90
2017-08-27T05:08:35.647Z,99.90
2017-08-27T05:11:03.197Z,99.90
2017-08-27T05:13:30.711Z,99.90
2017-08-27T05:15:58.213Z,99.90
2017-08-27T05:18:25.738Z,99.90
2017-08-27T05:20:53.241Z,99.90
2017-08-27T05:23:20.742Z,99.90
2017-08-27T05:25:48.278Z,99.90
2017-08-27T05:28:15.777Z,99.90
2017-08-27T05:30:43.288Z,99.90
2017-08-27T05:33:10.817Z,99.90
2017-08-27T05:35:38.319Z,99.90
2017-08-27T05:38:05.822Z,99.90
2017-08-27T05:40:33.371Z,99.90
2017-08-27T05:43:00.873Z,99.90
2017-08-27T05:45:28.377Z,99.90
2017-08-27T05:47:55.928Z,99.90
2017-08-27T05:50:23.442Z,99.10
2017-08-27T05:52:50.961Z,99.90
2017-08-27T05:55:18.881Z,99.10
2017-08-27T05:57:46.385Z,99.10
2017-08-27T06:00:13.886Z,97.40
2017-08-27T06:02:41.414Z,97.40
2017-08-27T06:05:08.917Z,97.10
2017-08-27T06:07:36.422Z,98.20
2017-08-27T06:10:03.954Z,98.00
2017-08-27T06:12:31.458Z,97.80
2017-08-27T06:14:58.958Z,97.50
2017-08-27T06:17:26.490Z,97.30
2017-08-27T06:19:53.990Z,97.70
2017-08-27T06:22:21.501Z,97.30
2017-08-27T06:24:49.030Z,97.40
2017-08-27T06:27:16.540Z,96.60
2017-08-27T06:29:44.042Z,96.40
2017-08-27T06:32:11.574Z,97.00
2017-08-27T06:34:39.077Z,96.50
2017-08-27T06:37:06.584Z,96.60
2017-08-27T06:39:34.114Z,96.00
2017-08-27T06:42:01.619Z,95.70
2017-08-27T06:44:29.122Z,96.00
2017-08-27T06:46:56.662Z,95.20
2017-08-27T06:49:24.167Z,96.20
2017-08-27T06:51:51.673Z,95.70
2017-08-27T06:54:19.212Z,95.40
2017-08-27T06:56:46.715Z,95.20
2017-08-27T06:59:14.223Z,94.20
2017-08-27T07:01:41.753Z,93.80
2017-08-27T07:04:09.259Z,93.30
2017-08-27T07:06:36.762Z,92.90
2017-08-27T07:09:04.294Z,92.40
2017-08-27T07:11:31.800Z,92.60
2017-08-27T07:13:59.306Z,92.10
2017-08-27T07:16:27.238Z,91.90
2017-08-27T07:18:54.739Z,91.70
2017-08-27T07:21:22.253Z,92.20
2017-08-27T07:23:49.779Z,91.30
2017-08-27T07:26:17.285Z,91.40
2017-08-27T07:28:44.790Z,91.40
2017-08-27T07:31:12.317Z,89.30
2017-08-27T07:33:39.819Z,89.60
2017-08-27T07:36:07.325Z,89.10
2017-08-27T07:38:34.862Z,89.90
2017-08-27T07:41:02.366Z,89.30
2017-08-27T07:43:29.875Z,90.30
2017-08-27T07:45:57.406Z,90.80
2017-08-27T07:48:24.877Z,90.20
2017-08-27T07:50:52.410Z,89.90
2017-08-27T07:53:19.934Z,89.50
2017-08-27T07:55:47.447Z,88.90
2017-08-27T07:58:14.953Z,87.80
2017-08-27T08:00:42.482Z,88.60
2017-08-27T08:03:09.990Z,88.00
2017-08-27T08:05:37.496Z,88.40
2017-08-27T08:08:05.037Z,89.10
2017-08-27T08:10:32.538Z,88.90
2017-08-27T08:13:00.047Z,88.60
2017-08-27T08:15:27.591Z,88.90
2017-08-27T08:17:55.106Z,89.10
2017-08-27T08:20:22.619Z,88.20
2017-08-27T08:22:50.164Z,87.60
2017-08-27T08:25:17.677Z,88.90
2017-08-27T08:27:45.206Z,88.90
2017-08-27T08:30:12.718Z,89.40
2017-08-27T08:32:40.225Z,87.80
2017-08-27T08:35:07.750Z,86.70
2017-08-27T08:37:35.250Z,86.90
2017-08-27T08:40:02.753Z,86.40
2017-08-27T08:42:30.290Z,87.40
2017-08-27T08:44:57.794Z,86.50
2017-08-27T08:47:25.301Z,86.30
2017-08-27T08:49:52.826Z,84.90
2017-08-27T08:52:20.329Z,85.40
2017-08-27T08:54:47.841Z,85.50
2017-08-27T08:57:15.366Z,84.50
2017-08-27T08:59:42.871Z,84.80
2017-08-27T09:02:10.378Z,85.10
2017-08-27T09:04:37.911Z,85.20
2017-08-27T09:07:05.413Z,85.40
2017-08-27T09:09:32.921Z,85.00
2017-08-27T09:12:00.446Z,84.20
2017-08-27T09:14:27.953Z,84.80
2017-08-27T09:16:55.458Z,85.70
2017-08-27T09:19:23.042Z,87.00
2017-08-27T09:21:50.549Z,87.40
2017-08-27T09:24:18.054Z,86.30
2017-08-27T09:26:45.582Z,87.60
2017-08-27T09:29:13.086Z,88.10
2017-08-27T09:31:40.590Z,87.40
2017-08-27T09:34:08.118Z,86.90
2017-08-27T09:36:35.623Z,88.70
2017-08-27T09:39:03.131Z,89.10
2017-08-27T09:41:30.662Z,89.20
2017-08-27T09:43:58.162Z,88.00
2017-08-27T09:46:25.662Z,88.20
2017-08-27T09:48:53.190Z,88.10
2017-08-27T09:51:20.960Z,88.50
2017-08-27T09:53:48.803Z,89.20
2017-08-27T09:56:16.677Z,89.70
2017-08-27T09:58:44.918Z,90.30
2017-08-27T10:01:12.431Z,87.50
2017-08-27T10:03:40.386Z,86.40
2017-08-27T10:06:08.409Z,86.80
2017-08-27T10:08:36.467Z,85.30
2017-08-27T10:11:04.446Z,83.60
2017-08-27T10:13:32.433Z,83.60
2017-08-27T10:16:00.463Z,83.10
2017-08-27T10:18:27.985Z,83.30
2017-08-27T10:20:56.074Z,83.40
2017-08-27T10:23:23.583Z,83.30
2017-08-27T10:25:51.150Z,81.70
2017-08-27T10:28:18.686Z,82.90
2017-08-27T10:30:46.190Z,81.60
2017-08-27T10:33:13.699Z,81.70
2017-08-27T10:35:41.221Z,81.50
2017-08-27T10:38:08.730Z,81.50
2017-08-27T10:40:36.234Z,79.70
2017-08-27T10:43:03.784Z,79.30
2017-08-27T10:45:31.314Z,79.20
2017-08-27T10:47:58.818Z,79.20
2017-08-27T10:50:26.354Z,78.80
2017-08-27T10:52:53.854Z,78.10
2017-08-27T10:55:21.355Z,77.60
2017-08-27T10:57:48.886Z,78.00
2017-08-27T11:00:16.394Z,77.10
2017-08-27T11:02:43.901Z,77.30
2017-08-27T11:05:11.430Z,78.40
2017-08-27T11:07:38.934Z,79.10
2017-08-27T11:10:06.448Z,79.20
2017-08-27T11:12:33.978Z,80.30
2017-08-27T11:15:01.510Z,79.60
2017-08-27T11:17:29.038Z,78.90
2017-08-27T11:19:56.547Z,78.40
2017-08-27T11:22:24.070Z,79.30
2017-08-27T11:24:51.582Z,78.30
2017-08-27T11:27:19.086Z,78.10
2017-08-27T11:29:46.630Z,79.60
2017-08-27T11:32:15.130Z,79.20
2017-08-27T11:34:42.638Z,78.40
2017-08-27T11:37:10.172Z,78.10
2017-08-27T11:39:37.674Z,78.40
2017-08-27T11:42:05.175Z,78.00
2017-08-27T11:44:32.710Z,77.70
2017-08-27T11:47:00.642Z,78.30
2017-08-27T11:49:28.154Z,78.30
2017-08-27T11:51:55.678Z,77.50
2017-08-27T11:54:23.177Z,76.50
2017-08-27T11:56:50.678Z,77.10
2017-08-27T11:59:18.206Z,77.10
2017-08-27T12:01:45.726Z,75.90
2017-08-27T12:04:13.246Z,75.20
2017-08-27T12:06:40.776Z,74.90
2017-08-27T12:09:08.304Z,74.90
2017-08-27T12:11:35.856Z,74.10
2017-08-27T12:14:03.382Z,74.50
2017-08-27T12:16:30.910Z,74.80
2017-08-27T12:18:58.442Z,73.70
2017-08-27T12:21:25.953Z,74.30
2017-08-27T12:23:53.489Z,73.70
2017-08-27T12:26:20.990Z,74.80
2017-08-27T12:28:48.510Z,72.50
2017-08-27T12:31:16.042Z,72.90
2017-08-27T12:33:43.586Z,72.70
2017-08-27T12:36:11.094Z,73.00
2017-08-27T12:38:38.630Z,73.70
2017-08-27T12:41:06.135Z,73.60
2017-08-27T12:43:33.654Z,72.30
2017-08-27T12:46:01.296Z,73.80
2017-08-27T12:48:28.806Z,73.70
2017-08-27T12:50:56.310Z,72.70
2017-08-27T12:53:23.844Z,71.90
2017-08-27T12:55:51.349Z,71.80
2017-08-27T12:58:18.859Z,71.50
2017-08-27T13:00:46.418Z,71.70
2017-08-27T13:03:13.925Z,71.60
2017-08-27T13:05:41.439Z,71.50
2017-08-27T13:08:09.010Z,70.70
2017-08-27T13:10:36.510Z,71.40
2017-08-27T13:13:04.047Z,72.50
2017-08-27T13:15:31.580Z,72.70
2017-08-27T13:17:59.084Z,73.70
2017-08-27T13:20:26.589Z,73.50
2017-08-27T13:22:54.118Z,72.50
2017-08-27T13:25:21.730Z,73.60
2017-08-27T13:27:49.254Z,72.70
2017-08-27T13:30:16.777Z,72.50
2017-08-27T13:32:44.514Z,72.20
2017-08-27T13:35:12.030Z,73.40
2017-08-27T13:37:39.648Z,73.20
2017-08-27T13:40:07.898Z,73.60
2017-08-27T13:42:35.422Z,73.70
2017-08-27T13:45:02.928Z,74.60
2017-08-27T13:47:30.463Z,73.20
2017-08-27T13:49:57.970Z,72.40
2017-08-27T13:52:25.479Z,73.30
2017-08-27T13:54:53.010Z,72.40
2017-08-27T13:57:20.518Z,71.80
2017-08-27T13:59:48.026Z,72.60
2017-08-27T14:02:15.554Z,72.50
2017-08-27T14:04:43.062Z,72.00
2017-08-27T14:07:10.819Z,71.50
2017-08-27T14:09:38.695Z,73.50
2017-08-27T14:12:06.530Z,72.10
2017-08-27T14:14:34.034Z,73.60
2017-08-27T14:17:01.583Z,72.90
2017-08-27T14:19:29.095Z,72.70
2017-08-27T14:21:56.616Z,71.60
2017-08-27T14:24:24.159Z,70.80
2017-08-27T14:26:51.672Z,69.00
2017-08-27T14:29:19.182Z,69.90
2017-08-27T14:31:46.710Z,71.00
2017-08-27T14:34:14.222Z,71.60
2017-08-27T14:36:41.731Z,71.90
2017-08-27T14:39:09.272Z,71.70
2017-08-27T14:41:36.783Z,72.10
2017-08-27T14:44:04.288Z,71.40
2017-08-27T14:46:31.821Z,72.50
2017-08-27T14:48:59.330Z,71.90
2017-08-27T14:51:26.835Z,72.40
2017-08-27T14:53:54.370Z,72.90
2017-08-27T14:56:21.887Z,72.40
2017-08-27T14:58:49.399Z,72.40
2017-08-27T15:01:16.931Z,72.30
2017-08-27T15:03:44.458Z,71.20
2017-08-27T15:06:11.979Z,71.60
2017-08-27T15:08:39.520Z,72.90
2017-08-27T15:11:07.030Z,72.30
2017-08-27T15:13:34.539Z,71.20
2017-08-27T15:16:02.098Z,70.70
2017-08-27T15:18:29.610Z,70.80
2017-08-27T15:20:57.114Z,71.20
2017-08-27T15:23:24.649Z,70.50
2017-08-27T15:25:52.164Z,70.80
2017-08-27T15:28:19.675Z,69.70
2017-08-27T15:30:47.206Z,71.00
2017-08-27T15:33:14.713Z,71.10
2017-08-27T15:35:42.268Z,71.90
2017-08-27T15:38:09.790Z,72.00
2017-08-27T15:40:37.398Z,72.10
2017-08-27T15:43:05.109Z,72.80
2017-08-27T15:45:32.834Z,73.80
2017-08-27T15:48:00.436Z,73.10
2017-08-27T15:50:28.130Z,72.90
2017-08-27T15:52:55.705Z,73.30
2017-08-27T15:55:23.232Z,74.70
2017-08-27T15:57:50.741Z,73.60
2017-08-27T16:00:18.298Z,71.60
2017-08-27T16:02:46.017Z,71.30
2017-08-27T16:05:13.518Z,73.10
2017-08-27T16:07:42.582Z,74.40
2017-08-27T16:10:10.087Z,75.60
2017-08-27T16:12:37.591Z,75.70
2017-08-27T16:15:05.142Z,75.90
2017-08-27T16:17:32.650Z,76.30
2017-08-27T16:20:00.154Z,77.00
2017-08-27T16:22:27.706Z,76.40
2017-08-27T16:24:55.214Z,76.50
2017-08-27T16:27:22.753Z,76.70
2017-08-27T16:29:50.268Z,75.80
2017-08-27T16:32:17.790Z,74.60
2017-08-27T16:34:45.325Z,73.80
2017-08-27T16:37:12.838Z,71.30
2017-08-27T16:39:40.346Z,69.00
2017-08-27T16:42:07.882Z,69.50
2017-08-27T16:44:35.732Z,68.90
2017-08-27T16:50:02.963Z,68.60
2017-08-27T16:52:30.498Z,69.50
2017-08-27T16:54:58.205Z,69.80
2017-08-27T16:57:25.815Z,70.40
2017-08-27T16:59:53.339Z,68.80
2017-08-27T17:02:20.866Z,69.70
2017-08-27T17:04:48.371Z,70.80
2017-08-27T17:07:15.902Z,70.30
2017-08-27T17:09:43.445Z,70.60
2017-08-27T17:12:11.344Z,72.90
